Forest Dale, Vermont
Current Conditions -  °F | °C
As of 7:55 PM on Sunday 28 Dec 2014 (Local Time) from K6B0 Reporting Station
Overcast Overcast  
Wind Chill:   Ceiling: 3500
Heat Index:   Visibility: 10mi
Dew Point: -4°   Wind: 0mph
Humidity: 63%   Direction: NA
Pressure: 29.96"   Gusts: NA
Location:  43.83°N, 73.05°W
Report Text: K6B0 290055Z AUTO 00000KT 10SM OVC035 02/M04 A2996 RMK AO2 T00201043
Loading
Personal Weather Stations






























Interactive Weather Map New forecast layout! Learn more

10-Day Weather Forecast

Advertisements
Track Severe Weather on mobile